Current | Forecast
Updated: 5:00 PM JST on April 25, 2018
Observed at Oita Airport, Japan
Temperature 63°F
Humidity 68%
Dew Point 52°F
Wind NW at 16 mph
Pressure 29.80 in (Steady)
Conditions Scattered Clouds
Visibility 6.2 miles
UV 1 out of 16
Clouds (FEW) : 2000 ft
Scattered Clouds (SCT) : 2500 ft
Yesterday's Maximum 68°F
Yesterday's Minimum 59°F approx.
Yesterday's Heating Degree Days 2 approx.
Sunrise5:32 AM JST
Sunset6:49 PM JST
Moon Rise1:59 PM JST
Moon Set2:39 AM JST
Moon PhaseMoon Phase
Waxing Gibbous
Raw METARMETAR RJFO 250800Z 32014KT 280V360 9999 FEW020 SCT025 BKN/// 17/11 Q1009


Monday
. High: 74° F.
Tuesday
. High: 82° F.
Wednesday
. High: 75° F.
Thursday
. High: 75° F.
Friday
. High: 62° F.
Saturday
. High: 75° F.
Sunday
. High: 75° F.
Monday
. High: 77° F.

Units: English | Metric

Find the Weather for any City, State or Zipcode, or Country:

U.S. State List | Severe Weather | Tropical Storms | Ski Conditions
United States | Canada | Central America | South America | Asia | Europe | Australia | Africa | Islands

Weather Underground

© Copyright 2018
The Weather Company, LLC